San Jose, Costa Rica
Current Conditions -  °F | °C
As of 10:00 AM on Thursday 29 Jan 2015 (Local Time) from MROC Reporting Station
Few Clouds Few Clouds  
Wind Chill: 77°   Ceiling: Unl
Heat Index: 79°   Visibility: 6mi
Dew Point: 59°   Wind: 18mph
Humidity: 54%   Direction: 110°ESE
Pressure: 29.98"   Gusts: NA
Location:  10°N, 84.22°W
Report Text: MROC 291600Z 11016KT 9999 FEW030 25/15 A2998 NOSIG
Loading
Personal Weather Stations






























Interactive Weather Map New forecast layout! Learn more

10-Day Weather Forecast

Advertisements
Track Severe Weather on mobile